Porter County Municipal Airport
KVPZ : now visible

Airfield :











YOU CAN JOIN US ON...

 
LOGIN :

Register | Disclaimer

   EN    FR    IT 

 









Legend :    VFR   Marginal VFR   IFR   Intensive IFR   Very Intensive IFR
Visi :
Ceiling :
>= 8 km
>= 3000ft
5 to 8 km
1000 to 3000 ft
1500m to 5 km
500 to 1000 ft
800 to 1500m
200 to 500 ft
< 800m
< 200 ft
Symbols :   Thunderstorms  Fog  Heavy snow  Heavy precipitations  Wind > 20 kt







- Airport Elevation : 770 ft


KVPZ - Porter County Municipal

CURRENT METAR :
  • 211145Z AUTO 32008KT 1SM -RA BR OVC004 03/01 A2991 RMK AO2 RAB39 P0000 T00280006 TSNO

EXPIRED METARs :
  • 211137Z AUTO 32010G20KT 2SM BR OVC004 03/01 A2991 RMK AO2 T00280006 TSNO $
  • 211130Z AUTO 32009G25KT 2 1/2SM BR OVC005 03/01 A2991 RMK AO2 T00280006 TSNO $
  • 211056Z AUTO 32008KT 4SM BR OVC005 03/01 A2990 RMK AO2 RAE0959 SLP129 P0000 T00280006 TSNO $
  • 211030Z AUTO 32009G16KT 3SM BR OVC005 03/01 A2990 RMK AO2 RAE0959 P0000 T00330011 TSNO $
  • 211014Z AUTO 32006KT 2 1/2SM BR OVC005 03/01 A2989 RMK AO2 RAE0959 P0000 T00330011 TSNO $
  • 210956Z AUTO 33007KT 3SM -RA BR OVC005 03/01 A2989 RMK AO2 SLP126 P0000 T00330011 TSNO $
  • 210918Z AUTO 33006KT 4SM -RA BKN006 OVC014 03/01 A2989 RMK AO2 CIG 005V010 P0000 T00330006 TSNO $
  • 210856Z AUTO 32004KT 5SM -RA FEW008 OVC013 03/01 A2989 RMK AO2 RAB28 SLP125 P0000 60000 T00330006 50000 TSNO $

TAF N/A
KZAU FIR / North America



MET'MAP, your aeronautical weather chart ! - Copyright ORBIFLY December 2007 - Disclaimer

ORBIFLY MET'MAP TEAM :

Programming & Development : Alexandra Zaïnal
Concept & Development : Baudouin d'Aumeries
Co-Development & Prog : Marc-Olivier Méhu
Technical & hardware support : Manuel Goepfert

Contact : metmap@orbifly.com




SOURCES & CREDITS :

   NOAA       Earth
Advisory